This is the latest recevied weather packets stored in our database for station/object EFHKFMI. If no packets are shown the sender has not sent any weather packets the latest 10 day(s).
| Time | Temp. | Humidity | Pressure | Rain* | Wind** | Luminosity | Snow |
|---|---|---|---|---|---|---|---|
| 1788596692 | 12.78° C | 86% | 994.8 hPa | 0 mm | - | - | - |
| 1788592878 | 10.56° C | 99% | 994.6 hPa | 0 mm | - | - | - |
| 1788590478 | 9.44° C | 100% | 994.3 hPa | 0 mm | - | - | - |
| 1788589278 | 8.33° C | 100% | 994.3 hPa | 0 mm | - | - | - |
| 1788542685 | 14.44° C | 75% | 997.1 hPa | 0 mm | - | - | - |
| 1788539085 | 14.44° C | 74% | 997.3 hPa | 0 mm | - | - | - |
| 1788534285 | 15.56° C | 70% | 997.5 hPa | 0 mm | - | - | - |
| 1788531674 | 16.67° C | 58% | 997.5 hPa | 0 mm | - | - | - |
| 1788530686 | 17.22° C | 59% | 997.6 hPa | 0 mm | - | - | - |
| 1788528284 | 17.22° C | 56% | 997.8 hPa | 0 mm | - | - | - |
| 1788526875 | 16.67° C | 57% | 997.7 hPa | 0 mm | - | - | - |
| 1788524684 | 15° C | 67% | 997.8 hPa | 0 mm | - | - | - |
| 1788521083 | 17.78° C | 50% | 997.8 hPa | 0 mm | - | - | - |
| 1788517484 | 17.22° C | 52% | 998.1 hPa | 0 mm | - | - | - |
| 1788510284 | 15.56° C | 70% | 998.9 hPa | 0 mm | - | - | - |
| 1788509084 | 15° C | 74% | 999 hPa | 0 mm | - | - | - |
| 1788506683 | 14.44° C | 89% | 999.2 hPa | 0 mm | - | - | - |
| 1788505483 | 13.33° C | 93% | 999.4 hPa | 0 mm | - | - | - |
| 1788504284 | 12.78° C | 96% | 999.7 hPa | 0 mm | - | - | - |
| 1788501883 | 11.67° C | 98% | 999.8 hPa | 0 mm | - | - | - |
| 1788499482 | 8.89° C | 99% | 1000.2 hPa | 0 mm | - | - | - |
| 1788498282 | 8.89° C | 98% | 1000.3 hPa | 0 mm | - | - | - |
| 1788495882 | 7.22° C | 98% | 1000.8 hPa | 0 mm | - | - | - |
| 1788494682 | 6.67° C | 95% | 1001.1 hPa | 0 mm | - | - | - |
| 1788493481 | 6.67° C | 100% | 1001.4 hPa | 0 mm | - | - | - |
* Rain latest hour (hover to see other rain measurements)
** Current wind speed in m/s (hover to see current wind gust speed)